Time;durP1;ratioP1;P1;durP2;ratioP2;P2;SDS_P1;SDS_P2;PMS_P1;PMS_P2;Temp;Humidity;BMP_temperature;BMP_pressure;BME280_temperature;BME280_humidity;BME280_pressure;Samples;Min_cycle;Max_cycle;Signal;HPM_P1;HPM_P2
2024/03/26 00:03:47;;;;;;;32.50;18.10;;;;;;;0.44;87.26;98957.55;217435;1257;140102;-68
2024/03/26 00:08:50;;;;;;;28.90;16.80;;;;;;;0.44;86.94;98959.49;217604;1257;139758;-69
2024/03/26 00:13:53;;;;;;;28.70;16.40;;;;;;;0.42;87.03;98962.38;218036;1257;141758;-68
2024/03/26 00:18:56;;;;;;;27.50;15.50;;;;;;;0.37;87.06;98966.58;217510;1260;139901;-69
2024/03/26 00:23:59;;;;;;;30.70;18.50;;;;;;;0.32;86.94;98968.11;217506;1257;140988;-69
2024/03/26 00:29:03;;;;;;;24.50;14.90;;;;;;;0.26;87.16;98963.39;217662;1257;140267;-67
2024/03/26 00:34:06;;;;;;;51.40;22.00;;;;;;;0.19;86.96;98962.74;217775;1257;139740;-68
2024/03/26 00:39:10;;;;;;;36.70;17.80;;;;;;;0.12;87.05;98968.23;217483;1257;140847;-69
2024/03/26 00:44:13;;;;;;;32.30;17.20;;;;;;;0.07;87.35;98976.16;217451;1260;140857;-68
2024/03/26 00:49:16;;;;;;;33.40;14.90;;;;;;;0.06;87.46;98979.33;217689;1260;142263;-69
2024/03/26 00:54:19;;;;;;;26.40;18.40;;;;;;;0.04;87.71;98984.10;217546;1260;140198;-68
2024/03/26 00:59:22;;;;;;;25.50;15.80;;;;;;;0.02;87.55;98988.40;218654;1256;141047;-68
2024/03/26 01:04:25;;;;;;;25.60;14.30;;;;;;;-0.03;87.71;98989.98;217529;1260;140234;-68
2024/03/26 01:09:28;;;;;;;32.00;15.60;;;;;;;-0.07;87.34;98991.75;218555;1259;140260;-69
2024/03/26 01:14:31;;;;;;;28.40;14.10;;;;;;;-0.06;87.50;98997.85;217555;1260;140760;-68
2024/03/26 01:19:35;;;;;;;22.60;15.50;;;;;;;-0.09;87.54;98999.98;217383;1257;139939;-70
2024/03/26 01:24:37;;;;;;;28.10;15.10;;;;;;;-0.12;87.61;99005.89;217444;1257;140218;-67
2024/03/26 01:29:41;;;;;;;26.40;16.00;;;;;;;-0.11;88.06;99002.02;217596;1256;140305;-68
2024/03/26 01:34:43;;;;;;;26.40;15.30;;;;;;;-0.13;87.99;99001.84;217461;1256;141335;-70
2024/03/26 01:39:46;;;;;;;25.50;15.20;;;;;;;-0.18;87.74;99001.64;217472;1257;139785;-69
2024/03/26 01:44:50;;;;;;;28.70;17.90;;;;;;;-0.22;88.04;98998.61;217598;1256;142413;-69
2024/03/26 01:49:56;;;;;;;27.20;18.10;;;;;;;-0.24;87.98;99001.88;218340;1256;140881;-66
2024/03/26 01:55:00;;;;;;;32.60;17.70;;;;;;;-0.28;88.11;99007.36;217494;1256;139902;-69
2024/03/26 02:00:03;;;;;;;34.20;19.10;;;;;;;-0.32;88.03;99007.29;217230;1260;140027;-70
2024/03/26 02:05:08;;;;;;;29.30;18.10;;;;;;;-0.33;88.34;99010.17;217424;1260;140052;-69
2024/03/26 02:10:11;;;;;;;31.40;17.70;;;;;;;-0.30;88.75;99020.38;217897;1257;140799;-69
2024/03/26 02:15:13;;;;;;;34.20;21.90;;;;;;;-0.27;88.67;99027.80;217677;1256;141116;-71
2024/03/26 02:20:17;;;;;;;42.50;21.10;;;;;;;-0.21;88.80;99026.27;217354;1260;141155;-69
2024/03/26 02:25:20;;;;;;;22.10;14.60;;;;;;;-0.16;89.42;99028.27;219155;1257;141948;-70
2024/03/26 02:30:23;;;;;;;31.30;16.20;;;;;;;-0.12;89.57;99036.46;220166;1256;139964;-71
2024/03/26 02:35:27;;;;;;;28.70;14.10;;;;;;;-0.05;89.83;99033.97;217627;1257;140368;-70
2024/03/26 02:40:32;;;;;;;24.70;13.20;;;;;;;0.01;89.95;99030.88;218914;1256;141002;-69
2024/03/26 02:45:35;;;;;;;18.00;11.10;;;;;;;0.07;89.92;99037.59;217524;1257;139885;-68
2024/03/26 02:50:39;;;;;;;30.20;13.00;;;;;;;0.10;90.38;99036.27;217597;1256;140230;-67
2024/03/26 02:55:42;;;;;;;21.60;12.20;;;;;;;0.15;90.51;99035.52;217249;1257;139717;-69
2024/03/26 03:00:45;;;;;;;17.50;12.50;;;;;;;0.16;90.58;99037.73;217563;1260;139799;-68
2024/03/26 03:05:49;;;;;;;28.80;12.70;;;;;;;0.20;91.16;99043.41;217646;1260;140146;-69
2024/03/26 03:10:52;;;;;;;18.00;12.10;;;;;;;0.25;90.86;99043.06;217465;1260;140174;-69
2024/03/26 03:15:55;;;;;;;21.00;11.90;;;;;;;0.24;90.92;99041.27;217376;1257;140512;-69
2024/03/26 03:20:58;;;;;;;22.40;13.10;;;;;;;0.22;90.97;99038.74;217225;1257;141049;-69
2024/03/26 03:26:01;;;;;;;14.70;8.70;;;;;;;0.23;91.58;99033.48;217709;1260;139979;-69
2024/03/26 03:31:05;;;;;;;18.10;10.90;;;;;;;0.23;91.50;99028.63;217279;1260;140878;-68
2024/03/26 03:36:09;;;;;;;18.40;11.80;;;;;;;0.23;91.30;99034.85;218091;1260;140073;-71
2024/03/26 03:41:12;;;;;;;17.10;11.10;;;;;;;0.20;91.21;99033.36;217826;1257;140214;-69
2024/03/26 03:46:15;;;;;;;19.40;11.70;;;;;;;0.20;91.71;99023.56;217677;1260;140478;-69
2024/03/26 03:51:18;;;;;;;23.90;13.70;;;;;;;0.22;91.79;99024.52;217568;1260;140070;-70
2024/03/26 03:56:22;;;;;;;25.10;13.30;;;;;;;0.25;91.79;99027.29;218455;1257;140342;-69
2024/03/26 04:01:26;;;;;;;24.80;16.80;;;;;;;0.28;91.78;99035.35;217685;1257;141866;-67
2024/03/26 04:06:29;;;;;;;16.50;11.20;;;;;;;0.33;92.04;99052.13;217295;1257;140290;-69
2024/03/26 04:11:32;;;;;;;24.40;12.70;;;;;;;0.33;91.54;99054.02;218756;1257;140098;-71
2024/03/26 04:16:36;;;;;;;22.70;12.80;;;;;;;0.35;92.07;99060.88;219136;1257;140526;-70
2024/03/26 04:21:40;;;;;;;16.70;11.60;;;;;;;0.31;91.46;99054.05;217378;1257;139810;-69
2024/03/26 04:26:43;;;;;;;17.10;13.20;;;;;;;0.29;91.33;99062.46;218732;1259;141290;-70
2024/03/26 04:31:46;;;;;;;21.80;12.30;;;;;;;0.29;91.86;99060.41;218196;1257;140614;-69
2024/03/26 04:36:51;;;;;;;18.60;12.00;;;;;;;0.27;91.73;99065.11;217638;1256;140742;-69
2024/03/26 04:41:54;;;;;;;18.40;11.00;;;;;;;0.27;91.76;99066.88;217461;1260;140053;-70
2024/03/26 04:46:57;;;;;;;23.50;13.80;;;;;;;0.24;91.94;99065.50;217511;1256;140375;-69
2024/03/26 04:52:01;;;;;;;15.10;10.40;;;;;;;0.22;91.79;99066.69;217369;1260;150713;-68
2024/03/26 04:57:04;;;;;;;14.20;9.50;;;;;;;0.17;91.85;99064.98;217478;1257;140553;-69
2024/03/26 05:02:07;;;;;;;16.50;10.80;;;;;;;0.15;91.71;99060.64;218142;1259;140216;-69
2024/03/26 05:07:10;;;;;;;9.40;7.30;;;;;;;0.20;92.25;99065.66;217410;1260;139706;-69
2024/03/26 05:12:13;;;;;;;16.70;11.30;;;;;;;0.26;92.46;99068.89;217478;1258;139370;-68
2024/03/26 05:17:16;;;;;;;14.90;10.00;;;;;;;0.33;92.57;99080.96;218516;1257;140616;-67
2024/03/26 05:22:19;;;;;;;7.20;5.60;;;;;;;0.41;92.78;99086.73;217316;1256;139570;-71
2024/03/26 05:27:22;;;;;;;19.70;10.20;;;;;;;0.50;92.61;99088.94;217590;1256;139366;-69
2024/03/26 05:32:25;;;;;;;17.20;11.10;;;;;;;0.57;92.50;99091.20;217393;1257;140572;-70
2024/03/26 05:37:27;;;;;;;28.50;14.80;;;;;;;0.64;92.39;99086.11;218526;1257;141091;-69
2024/03/26 05:42:30;;;;;;;20.30;12.20;;;;;;;0.69;92.52;99078.78;217093;1260;140570;-70
2024/03/26 05:47:33;;;;;;;19.50;13.10;;;;;;;0.81;92.46;99076.41;218778;1260;140170;-69
2024/03/26 05:52:36;;;;;;;22.70;13.50;;;;;;;0.91;91.85;99075.00;217178;1257;141365;-71
2024/03/26 05:57:39;;;;;;;16.20;9.40;;;;;;;0.95;91.70;99078.09;217774;1256;139755;-74
2024/03/26 06:02:43;;;;;;;19.90;11.90;;;;;;;1.00;92.14;99085.48;220317;1256;151260;-71
2024/03/26 06:07:46;;;;;;;15.10;9.80;;;;;;;1.16;92.51;99080.01;217348;1256;225955;-69
2024/03/26 06:12:49;;;;;;;21.50;12.60;;;;;;;1.31;92.69;99081.33;218429;1257;139979;-74
2024/03/26 06:17:52;;;;;;;18.40;11.40;;;;;;;1.51;92.65;99083.36;217501;1260;140001;-71
2024/03/26 06:22:55;;;;;;;16.80;9.40;;;;;;;1.72;92.69;99091.95;217696;1259;139831;-69
2024/03/26 06:27:58;;;;;;;16.10;11.30;;;;;;;1.88;92.54;99092.67;217565;1257;140811;-69
2024/03/26 06:33:01;;;;;;;14.20;10.40;;;;;;;2.06;92.75;99095.98;217351;1259;140832;-73
2024/03/26 06:38:05;;;;;;;18.20;11.00;;;;;;;2.14;92.46;99096.03;217541;1257;140237;-70
2024/03/26 06:43:08;;;;;;;17.40;11.70;;;;;;;2.18;92.49;99093.70;217258;1257;141371;-69
2024/03/26 06:48:11;;;;;;;19.70;12.60;;;;;;;2.31;92.60;99093.80;217700;1256;141073;-69
2024/03/26 06:53:14;;;;;;;14.70;9.20;;;;;;;2.48;92.44;99090.23;217481;1257;139755;-69
2024/03/26 06:58:18;;;;;;;11.60;9.50;;;;;;;2.63;92.69;99081.74;217336;1256;140785;-70
2024/03/26 07:03:24;;;;;;;12.50;9.20;;;;;;;2.97;92.80;99084.48;217569;1257;140079;-70
2024/03/26 07:08:26;;;;;;;11.30;8.40;;;;;;;3.10;92.54;99089.77;217317;1257;139643;-69
2024/03/26 07:13:28;;;;;;;14.90;10.60;;;;;;;3.32;92.76;99083.86;217574;1260;139603;-69
2024/03/26 07:18:32;;;;;;;14.90;9.90;;;;;;;3.58;92.82;99082.85;217378;1257;141430;-69
2024/03/26 07:23:36;;;;;;;15.20;11.20;;;;;;;3.82;92.14;99092.62;217445;1260;139924;-70
2024/03/26 07:28:39;;;;;;;14.50;9.30;;;;;;;3.86;91.50;99091.27;217412;1260;139935;-69
2024/03/26 07:33:42;;;;;;;14.00;9.70;;;;;;;3.75;91.36;99091.29;217388;1257;221529;-70
2024/03/26 07:38:46;;;;;;;18.10;11.20;;;;;;;3.73;91.42;99084.68;217540;1262;142529;-70
2024/03/26 07:43:49;;;;;;;18.10;10.80;;;;;;;3.93;92.15;99083.05;217441;1257;161708;-70
2024/03/26 07:48:52;;;;;;;18.70;12.70;;;;;;;4.07;91.69;99081.79;217302;1260;140807;-70
2024/03/26 07:53:55;;;;;;;20.10;12.80;;;;;;;4.32;92.15;99078.95;218577;1258;139738;-70
2024/03/26 07:58:59;;;;;;;28.20;14.90;;;;;;;4.62;92.60;99079.33;217445;1261;141017;-70
2024/03/26 08:04:01;;;;;;;21.10;13.00;;;;;;;4.87;92.60;99087.05;217367;1257;141024;-74
2024/03/26 08:09:04;;;;;;;20.10;12.00;;;;;;;5.15;92.84;99077.29;217553;1257;140054;-70
2024/03/26 08:14:07;;;;;;;22.20;12.90;;;;;;;5.39;92.59;99075.59;218485;1256;140160;-71
2024/03/26 08:19:10;;;;;;;19.10;14.60;;;;;;;5.59;92.19;99069.83;217630;1257;140490;-71
2024/03/26 08:24:13;;;;;;;18.40;11.10;;;;;;;5.61;91.20;99066.77;217441;1257;139853;-72
2024/03/26 08:29:15;;;;;;;20.50;12.80;;;;;;;5.72;91.39;99074.99;217365;1260;141397;-72
2024/03/26 08:34:19;;;;;;;18.80;12.90;;;;;;;5.85;91.41;99073.46;217954;1261;139697;-75
2024/03/26 08:39:22;;;;;;;21.20;15.00;;;;;;;6.20;91.80;99068.61;218405;1256;140509;-74
2024/03/26 08:44:25;;;;;;;17.90;12.30;;;;;;;6.35;90.67;99069.20;217294;1257;140781;-71
2024/03/26 08:49:28;;;;;;;21.90;14.00;;;;;;;6.59;91.29;99066.32;217532;1262;165043;-70
2024/03/26 08:54:30;;;;;;;18.50;12.30;;;;;;;6.72;90.70;99063.80;217839;1261;140285;-70
2024/03/26 08:59:33;;;;;;;23.30;14.10;;;;;;;7.04;91.10;99060.58;218273;1257;141070;-71
2024/03/26 09:04:36;;;;;;;20.60;13.70;;;;;;;7.33;89.68;99047.42;217741;1260;141242;-70
2024/03/26 09:09:39;;;;;;;16.00;11.70;;;;;;;7.38;89.81;99042.17;217571;1258;140979;-69
2024/03/26 09:14:42;;;;;;;26.10;15.50;;;;;;;7.68;89.95;99026.45;217526;1255;139952;-69
2024/03/26 09:19:45;;;;;;;16.10;12.90;;;;;;;8.20;90.91;99018.13;217420;1257;139751;-71
2024/03/26 09:24:48;;;;;;;21.50;16.00;;;;;;;8.58;89.86;99007.14;217552;1261;141194;-70
2024/03/26 09:29:56;;;;;;;16.80;12.60;;;;;;;9.03;89.88;99003.95;217769;1257;140165;-70
2024/03/26 09:35:00;;;;;;;15.10;11.40;;;;;;;9.23;88.55;98999.25;217382;1257;140572;-70
2024/03/26 09:40:04;;;;;;;10.10;8.60;;;;;;;9.40;87.80;98990.04;217696;1261;140670;-73
2024/03/26 09:45:18;;;;;;;11.10;8.30;;;;;;;9.59;87.12;98977.40;218939;1260;139916;-70
2024/03/26 09:50:22;;;;;;;10.80;6.90;;;;;;;9.87;86.78;98969.50;217873;1260;139617;-71
2024/03/26 09:55:29;;;;;;;11.50;8.70;;;;;;;10.23;86.49;98959.63;218200;1257;140505;-72
2024/03/26 10:00:34;;;;;;;11.40;8.40;;;;;;;10.44;85.28;98954.78;217560;1256;140310;-74
2024/03/26 10:05:38;;;;;;;9.10;7.00;;;;;;;10.67;84.02;98956.80;217707;1261;140319;-73
2024/03/26 10:10:41;;;;;;;14.80;9.10;;;;;;;10.77;82.92;98953.77;217858;1256;139800;-74
2024/03/26 10:15:45;;;;;;;8.70;7.80;;;;;;;10.85;82.44;98944.94;217712;1261;140652;-74
2024/03/26 10:20:49;;;;;;;10.40;8.20;;;;;;;11.04;81.50;98939.09;217585;1257;141137;-75
2024/03/26 10:25:52;;;;;;;9.80;7.50;;;;;;;11.20;80.53;98939.15;217826;1257;141241;-72
2024/03/26 10:30:55;;;;;;;10.20;8.00;;;;;;;11.33;79.82;98933.71;217712;1261;140285;-73
2024/03/26 10:35:59;;;;;;;11.50;8.90;;;;;;;11.55;79.76;98931.69;217903;1257;140961;-72
2024/03/26 10:41:11;;;;;;;11.30;8.90;;;;;;;11.75;78.97;98930.56;217869;1257;151892;-72
2024/03/26 10:46:15;;;;;;;10.50;7.90;;;;;;;11.93;78.08;98922.19;216839;1260;873262;-72
2024/03/26 10:51:18;;;;;;;14.50;10.90;;;;;;;12.04;77.02;98924.57;218210;1257;141186;-73
2024/03/26 10:56:22;;;;;;;14.10;10.50;;;;;;;11.91;75.67;98923.90;217638;1257;140819;-75
2024/03/26 11:01:27;;;;;;;11.20;8.80;;;;;;;11.83;75.32;98917.85;218690;1257;140801;-71
2024/03/26 11:06:30;;;;;;;10.90;8.40;;;;;;;11.87;74.29;98912.15;217861;1257;139364;-74
2024/03/26 11:11:35;;;;;;;11.40;9.30;;;;;;;11.98;73.93;98908.63;217516;1260;139312;-74
2024/03/26 11:16:39;;;;;;;10.00;7.80;;;;;;;12.12;73.48;98904.61;217322;1261;139587;-73
2024/03/26 11:21:44;;;;;;;10.80;8.90;;;;;;;12.21;72.57;98896.08;217368;1261;140170;-73
2024/03/26 11:26:51;;;;;;;13.50;8.50;;;;;;;12.24;71.56;98893.93;217459;1261;139218;-74
2024/03/26 11:31:55;;;;;;;9.70;8.60;;;;;;;12.22;71.84;98883.58;218033;1260;141060;-73
2024/03/26 11:36:59;;;;;;;12.40;9.00;;;;;;;12.38;71.50;98867.75;217562;1262;139454;-73
2024/03/26 11:42:12;;;;;;;11.50;8.70;;;;;;;12.56;71.01;98857.96;217639;1262;138910;-73
2024/03/26 11:47:15;;;;;;;10.00;8.40;;;;;;;12.58;70.40;98847.05;218540;1257;140278;-73
2024/03/26 11:52:18;;;;;;;12.60;8.50;;;;;;;12.65;70.19;98842.71;217691;1261;139519;-74
2024/03/26 11:57:21;;;;;;;11.90;9.20;;;;;;;12.76;69.37;98837.26;217502;1262;139421;-74
2024/03/26 12:02:24;;;;;;;11.00;8.60;;;;;;;12.90;69.66;98828.48;218291;1257;139594;-74
2024/03/26 12:07:30;;;;;;;9.60;7.50;;;;;;;13.00;69.13;98826.27;218410;1257;222509;-74
2024/03/26 12:12:40;;;;;;;12.30;8.50;;;;;;;13.00;67.86;98816.48;217566;1256;139949;-74
2024/03/26 12:17:44;;;;;;;13.90;9.60;;;;;;;12.95;67.46;98807.77;217730;1258;140160;-74
2024/03/26 12:22:48;;;;;;;10.40;6.90;;;;;;;12.99;67.47;98803.53;217889;1260;140932;-73
2024/03/26 12:28:01;;;;;;;16.60;8.20;;;;;;;13.11;67.51;98795.85;217523;1260;139588;-73
2024/03/26 12:33:07;;;;;;;9.50;6.00;;;;;;;13.17;66.30;98795.30;217524;1260;140062;-73
2024/03/26 12:38:11;;;;;;;9.00;5.90;;;;;;;13.25;66.23;98783.23;217586;1260;139718;-73
2024/03/26 12:43:15;;;;;;;7.90;5.40;;;;;;;13.33;65.43;98773.34;217524;1257;139389;-73
2024/03/26 12:48:18;;;;;;;11.10;6.40;;;;;;;13.34;63.95;98764.29;217692;1259;139251;-73
2024/03/26 12:53:21;;;;;;;6.90;6.20;;;;;;;13.37;64.88;98757.59;217633;1257;139212;-72
2024/03/26 12:58:25;;;;;;;8.40;6.00;;;;;;;13.45;64.11;98749.13;217591;1260;139636;-74
2024/03/26 13:03:28;;;;;;;7.80;5.00;;;;;;;13.51;63.61;98738.53;217633;1260;138886;-73
2024/03/26 13:08:32;;;;;;;4.60;4.30;;;;;;;13.52;62.45;98739.54;217579;1261;140224;-73
2024/03/26 13:13:36;;;;;;;6.40;4.90;;;;;;;13.41;61.55;98727.96;217617;1260;139060;-73
2024/03/26 13:18:41;;;;;;;7.10;5.30;;;;;;;13.41;61.33;98717.25;217598;1257;139705;-73
2024/03/26 13:23:44;;;;;;;6.00;5.50;;;;;;;13.40;60.68;98700.61;217839;1257;140188;-73
2024/03/26 13:28:47;;;;;;;6.80;4.70;;;;;;;13.33;60.06;98696.63;217905;1263;138886;-73
2024/03/26 13:33:50;;;;;;;8.20;5.10;;;;;;;13.27;59.71;98690.34;217631;1262;138900;-73
2024/03/26 13:38:54;;;;;;;5.50;4.90;;;;;;;13.21;59.39;98680.05;218053;1260;139172;-74
2024/03/26 13:44:00;;;;;;;6.40;5.00;;;;;;;13.30;60.04;98679.95;217532;1262;139567;-73
2024/03/26 13:49:03;;;;;;;5.90;4.60;;;;;;;13.46;60.02;98679.40;217711;1258;140380;-74
2024/03/26 13:54:05;;;;;;;5.70;4.00;;;;;;;13.44;58.69;98672.40;217491;1261;139379;-73
2024/03/26 13:59:08;;;;;;;5.40;4.40;;;;;;;13.37;57.92;98676.54;218758;1257;139339;-74
2024/03/26 14:04:11;;;;;;;5.10;4.20;;;;;;;13.34;58.09;98661.77;217102;1257;140897;-74
2024/03/26 14:09:14;;;;;;;3.50;3.20;;;;;;;13.36;58.11;98659.99;217467;1257;141714;-73
2024/03/26 14:14:17;;;;;;;3.90;3.50;;;;;;;13.33;57.73;98654.55;217385;1261;139261;-74
2024/03/26 14:19:20;;;;;;;5.00;4.10;;;;;;;13.39;58.10;98647.56;217477;1261;139900;-73
2024/03/26 14:24:23;;;;;;;3.80;3.50;;;;;;;13.40;57.48;98640.54;217865;1260;139546;-73
2024/03/26 14:29:26;;;;;;;4.20;3.80;;;;;;;13.29;56.11;98634.02;217315;1260;139846;-73
2024/03/26 14:34:28;;;;;;;4.80;3.30;;;;;;;13.15;55.99;98626.73;217161;1257;139518;-73
2024/03/26 14:39:31;;;;;;;3.50;2.40;;;;;;;13.09;55.78;98624.84;217375;1257;140077;-74
2024/03/26 14:44:37;;;;;;;5.00;3.80;;;;;;;13.07;55.53;98621.15;217422;1260;139028;-73
2024/03/26 14:49:44;;;;;;;4.20;2.80;;;;;;;13.03;55.49;98622.35;217425;1260;139754;-73
2024/03/26 14:54:47;;;;;;;3.40;3.10;;;;;;;12.97;55.10;98614.20;217418;1260;139801;-73
2024/03/26 14:59:50;;;;;;;3.90;3.40;;;;;;;12.94;55.45;98612.56;217436;1260;140890;-73
2024/03/26 15:04:57;;;;;;;4.20;3.90;;;;;;;12.95;55.37;98607.80;217335;1260;140453;-73
2024/03/26 15:09:59;;;;;;;2.40;2.10;;;;;;;12.92;54.82;98604.11;217751;1257;138864;-73
2024/03/26 15:15:02;;;;;;;5.30;2.70;;;;;;;12.85;54.68;98597.95;217212;1260;139519;-72
2024/03/26 15:20:06;;;;;;;3.30;2.30;;;;;;;12.76;54.53;98592.36;217872;1257;138988;-73
2024/03/26 15:25:09;;;;;;;3.00;2.40;;;;;;;12.66;54.36;98588.13;217728;1257;140267;-73
2024/03/26 15:35:33;;;;;;;3.90;2.20;;;;;;;12.54;54.71;98574.77;219286;1257;140481;-74
2024/03/26 15:40:36;;;;;;;4.40;2.60;;;;;;;12.44;54.43;98563.39;217361;1257;139503;-73
2024/03/26 15:45:43;;;;;;;2.50;2.30;;;;;;;12.33;54.12;98561.34;217407;1257;140364;-73
2024/03/26 15:50:45;;;;;;;3.00;2.10;;;;;;;12.22;54.56;98550.07;218173;1258;141759;-73
2024/03/26 15:55:49;;;;;;;4.40;2.50;;;;;;;12.13;54.70;98533.39;217275;1257;139887;-73
2024/03/26 16:00:53;;;;;;;3.30;2.90;;;;;;;12.08;54.69;98536.51;217399;1257;139606;-72
2024/03/26 16:05:55;;;;;;;2.70;2.30;;;;;;;12.02;54.70;98538.39;217456;1261;139427;-73
2024/03/26 16:10:58;;;;;;;2.80;2.40;;;;;;;11.93;54.69;98533.04;217247;1260;139390;-73
2024/03/26 16:16:02;;;;;;;3.00;2.50;;;;;;;11.80;55.18;98532.38;217486;1261;139928;-72
2024/03/26 16:21:05;;;;;;;2.80;2.50;;;;;;;11.66;55.22;98527.91;218647;1260;139272;-73
2024/03/26 16:26:09;;;;;;;3.10;2.50;;;;;;;11.52;55.24;98525.49;217298;1256;140656;-73
2024/03/26 16:31:16;;;;;;;2.50;2.30;;;;;;;11.38;55.56;98527.05;217080;1257;139023;-72
2024/03/26 16:36:18;;;;;;;4.80;2.90;;;;;;;11.24;55.00;98519.93;217235;1257;140193;-72
2024/03/26 16:41:35;;;;;;;2.60;1.90;;;;;;;11.10;55.12;98513.85;217588;1257;139008;-72
2024/03/26 16:46:38;;;;;;;2.80;2.50;;;;;;;10.93;55.23;98512.10;217381;1257;139667;-71
2024/03/26 16:51:42;;;;;;;4.50;2.40;;;;;;;10.77;55.31;98513.20;217436;1257;140107;-72
2024/03/26 16:56:45;;;;;;;2.60;2.40;;;;;;;10.62;55.28;98510.80;217527;1257;139344;-71
2024/03/26 17:01:48;;;;;;;4.20;3.10;;;;;;;10.49;55.52;98503.84;217556;1258;139586;-72
2024/03/26 17:06:51;;;;;;;7.80;4.70;;;;;;;10.34;55.55;98496.95;217511;1257;139094;-72
2024/03/26 17:11:55;;;;;;;7.10;5.80;;;;;;;10.19;55.74;98490.55;217749;1260;139748;-73
2024/03/26 17:16:58;;;;;;;5.30;3.30;;;;;;;10.09;56.02;98493.80;217383;1260;139654;-72
2024/03/26 17:22:01;;;;;;;5.50;3.60;;;;;;;9.98;56.10;98488.92;219508;1256;141102;-72
2024/03/26 17:27:04;;;;;;;10.10;3.70;;;;;;;9.87;56.15;98491.17;217406;1257;139206;-72
2024/03/26 17:32:07;;;;;;;4.00;3.40;;;;;;;9.79;56.21;98486.88;217394;1257;141551;-71
2024/03/26 17:37:10;;;;;;;6.30;3.50;;;;;;;9.70;56.41;98491.27;217187;1257;139050;-72
2024/03/26 17:42:12;;;;;;;8.90;5.60;;;;;;;9.62;56.42;98488.23;217342;1260;139068;-71
2024/03/26 17:47:16;;;;;;;7.30;5.20;;;;;;;9.54;56.47;98487.81;217773;1257;139484;-71
2024/03/26 17:52:19;;;;;;;7.90;4.40;;;;;;;9.46;56.55;98494.38;217438;1257;139024;-71
2024/03/26 17:57:23;;;;;;;6.10;3.90;;;;;;;9.39;56.74;98494.45;217445;1260;139418;-71
2024/03/26 18:02:26;;;;;;;5.50;3.60;;;;;;;9.33;56.85;98492.87;217597;1257;139144;-72
2024/03/26 18:07:45;;;;;;;6.10;3.70;;;;;;;9.30;57.07;98493.48;217627;1257;139278;-71
2024/03/26 18:12:48;;;;;;;6.60;3.30;;;;;;;9.24;57.08;98492.32;217272;1260;139373;-72
2024/03/26 18:17:51;;;;;;;4.40;3.20;;;;;;;9.17;57.35;98484.68;217240;1260;140223;-71
2024/03/26 18:22:54;;;;;;;8.50;4.30;;;;;;;9.14;57.59;98484.19;217387;1260;141481;-71
2024/03/26 18:28:02;;;;;;;7.40;3.90;;;;;;;9.13;57.57;98482.01;217487;1260;140173;-71
2024/03/26 18:33:05;;;;;;;;;;;;;;;9.14;57.58;98481.33;217321;1257;138939;-71
2024/03/26 18:38:08;;;;;;;5.60;4.00;;;;;;;9.08;57.68;98483.25;217537;1262;127875;-71
2024/03/26 18:43:11;;;;;;;5.00;3.70;;;;;;;9.06;57.88;98482.01;217194;1257;139201;-71
2024/03/26 18:48:14;;;;;;;5.40;3.80;;;;;;;9.01;57.79;98477.83;217272;1257;139175;-72
2024/03/26 18:53:17;;;;;;;6.30;4.40;;;;;;;8.97;57.90;98476.94;217177;1257;138883;-72
2024/03/26 18:58:20;;;;;;;5.60;4.00;;;;;;;8.95;57.90;98475.70;217312;1257;139098;-71
2024/03/26 19:03:23;;;;;;;6.80;4.60;;;;;;;8.97;57.78;98480.34;217235;1262;141136;-74
2024/03/26 19:08:26;;;;;;;5.50;4.10;;;;;;;8.94;57.83;98478.08;217365;1260;139721;-72
2024/03/26 19:13:29;;;;;;;9.70;5.50;;;;;;;8.89;57.79;98475.86;216908;1262;139847;-72
2024/03/26 19:18:33;;;;;;;6.10;4.00;;;;;;;8.85;58.00;98475.10;218272;1261;139318;-71
2024/03/26 19:23:35;;;;;;;5.40;4.00;;;;;;;8.83;58.01;98474.66;218325;1257;140141;-72
2024/03/26 19:28:39;;;;;;;8.70;4.00;;;;;;;8.79;58.06;98473.40;220110;1257;139106;-73
2024/03/26 19:33:42;;;;;;;5.80;4.70;;;;;;;8.77;58.09;98470.27;219893;1256;140542;-70
2024/03/26 19:38:46;;;;;;;5.50;4.00;;;;;;;8.75;58.18;98463.76;217030;1257;139638;-72
2024/03/26 19:43:48;;;;;;;7.50;4.90;;;;;;;8.73;57.95;98464.42;217134;1260;139225;-71
2024/03/26 19:48:55;;;;;;;7.70;4.60;;;;;;;8.69;58.26;98462.10;217754;1256;138688;-71
2024/03/26 19:53:59;;;;;;;10.30;5.00;;;;;;;8.65;58.29;98458.83;217896;1257;140172;-73
2024/03/26 19:59:03;;;;;;;6.50;4.60;;;;;;;8.60;58.61;98453.73;217607;1256;139721;-73
2024/03/26 20:04:07;;;;;;;7.10;4.80;;;;;;;8.56;58.76;98453.12;217140;1257;140399;-72
2024/03/26 20:09:10;;;;;;;5.10;3.70;;;;;;;8.51;58.94;98450.86;217318;1256;140011;-73
2024/03/26 20:14:13;;;;;;;8.30;5.60;;;;;;;8.45;59.10;98447.73;217056;1260;139189;-70
2024/03/26 20:19:16;;;;;;;8.10;5.60;;;;;;;8.40;59.27;98441.66;217372;1257;139255;-72
2024/03/26 20:24:19;;;;;;;6.80;5.00;;;;;;;8.33;59.37;98449.50;218001;1257;139208;-71
2024/03/26 20:29:21;;;;;;;7.30;5.40;;;;;;;8.27;59.73;98441.99;218326;1256;138595;-71
2024/03/26 20:34:27;;;;;;;8.90;5.10;;;;;;;8.23;59.62;98434.55;217276;1260;138615;-72
2024/03/26 20:39:31;;;;;;;9.60;5.70;;;;;;;8.19;59.77;98431.56;217310;1257;138445;-73
2024/03/26 20:44:33;;;;;;;9.60;5.10;;;;;;;8.13;60.03;98429.70;217570;1260;139740;-71
2024/03/26 20:49:36;;;;;;;6.90;4.50;;;;;;;8.07;60.28;98418.28;217482;1257;139217;-71
2024/03/26 20:54:39;;;;;;;6.60;4.80;;;;;;;8.00;60.70;98419.20;217835;1257;140137;-71
2024/03/26 20:59:42;;;;;;;7.20;5.40;;;;;;;7.93;60.55;98416.67;217645;1259;138893;-71
2024/03/26 21:04:45;;;;;;;10.70;5.20;;;;;;;7.88;60.64;98416.55;218266;1259;138519;-74
2024/03/26 21:09:48;;;;;;;7.70;4.70;;;;;;;7.82;61.13;98413.08;218349;1256;139489;-73
2024/03/26 21:14:51;;;;;;;8.40;5.50;;;;;;;7.75;61.37;98410.83;218388;1256;139576;-72
2024/03/26 21:20:12;;;;;;;16.20;5.40;;;;;;;7.73;61.34;98405.23;220195;1256;139327;-75
2024/03/26 21:25:16;;;;;;;10.70;6.20;;;;;;;7.71;61.39;98402.72;217674;1257;138820;-71
2024/03/26 21:30:20;;;;;;;9.80;5.50;;;;;;;7.67;61.91;98401.28;217682;1255;138894;-72
2024/03/26 21:35:23;;;;;;;9.00;5.20;;;;;;;7.61;62.01;98395.84;218587;1257;139062;-70
2024/03/26 21:40:25;;;;;;;8.30;5.10;;;;;;;7.55;61.93;98391.89;217743;1259;141022;-71
2024/03/26 21:45:28;;;;;;;6.20;4.00;;;;;;;7.51;62.40;98391.15;217618;1257;140248;-68
2024/03/26 21:50:31;;;;;;;9.50;5.60;;;;;;;7.44;62.38;98386.44;217885;1256;138559;-69
2024/03/26 21:55:34;;;;;;;8.80;5.40;;;;;;;7.38;62.71;98381.70;217655;1257;139107;-72
2024/03/26 22:00:37;;;;;;;8.30;4.90;;;;;;;7.34;62.64;98379.80;217754;1259;139434;-69
2024/03/26 22:05:40;;;;;;;7.80;4.70;;;;;;;7.31;63.33;98381.00;217825;1259;139748;-70
2024/03/26 22:10:42;;;;;;;9.00;5.10;;;;;;;7.25;63.54;98376.52;217877;1259;139552;-71
2024/03/26 22:15:45;;;;;;;9.20;5.60;;;;;;;7.18;63.20;98376.95;217766;1259;138948;-70
2024/03/26 22:20:59;;;;;;;9.80;5.30;;;;;;;7.11;63.77;98374.52;217907;1257;139067;-71
2024/03/26 22:26:08;;;;;;;6.70;4.30;;;;;;;7.06;63.75;98369.75;217731;1257;140080;-71
2024/03/26 22:31:10;;;;;;;6.50;5.00;;;;;;;7.01;63.85;98367.54;217779;1257;139612;-70
2024/03/26 22:36:13;;;;;;;7.70;6.00;;;;;;;6.95;63.97;98361.46;217725;1257;140069;-72
2024/03/26 22:41:16;;;;;;;9.80;5.60;;;;;;;6.91;64.26;98360.92;217717;1258;141707;-71
2024/03/26 22:46:23;;;;;;;9.50;6.00;;;;;;;6.83;64.23;98360.23;217220;1256;497900;-71
2024/03/26 22:51:26;;;;;;;8.20;5.60;;;;;;;6.75;64.72;98359.69;218406;1256;140354;-71
2024/03/26 22:56:29;;;;;;;10.30;5.10;;;;;;;6.68;65.17;98357.59;218353;1257;139038;-70
2024/03/26 23:01:32;;;;;;;5.40;4.60;;;;;;;6.63;64.82;98355.23;217494;1260;139857;-72
2024/03/26 23:06:36;;;;;;;7.60;6.20;;;;;;;6.59;65.31;98350.98;217707;1257;140044;-73
2024/03/26 23:11:39;;;;;;;6.90;6.20;;;;;;;6.56;65.00;98349.40;218144;1257;140534;-71
2024/03/26 23:16:43;;;;;;;5.90;4.70;;;;;;;6.51;65.37;98344.92;218357;1257;139323;-70